createdAt,value
2022-07-29T02:37:34.604Z,91.81
2022-07-29T02:44:53.678Z,93.25
2022-07-29T02:52:31.539Z,93.58
2022-07-29T02:56:33.399Z,93.03
2022-07-29T02:59:34.818Z,92.06
2022-07-29T03:02:26.982Z,91.55
2022-07-29T03:05:55.753Z,92.78
2022-07-29T03:09:32.857Z,93.17
2022-07-29T03:12:46.071Z,91.71
2022-07-29T03:15:14.779Z,90.82
2022-07-29T03:18:19.537Z,92.14
2022-07-29T03:20:52.827Z,93.21
2022-07-29T03:24:31.242Z,91.56
2022-07-29T03:26:58.875Z,91.45
2022-07-29T03:36:31.162Z,92.82
2022-07-29T03:37:15.129Z,92.03
2022-07-29T03:37:58.179Z,91.58
2022-07-29T03:41:04.444Z,92.16
2022-07-29T03:47:16.721Z,91.44
2022-07-29T03:49:47.403Z,89.83
2022-07-29T03:54:21.950Z,90.69
2022-07-29T03:55:57.985Z,91.02
2022-07-29T03:58:27.490Z,91.02
2022-07-29T04:01:31.562Z,89.41
2022-07-29T04:04:03.670Z,90.63
2022-07-29T04:06:44.818Z,88.13
2022-07-29T04:09:24.869Z,88.25
2022-07-29T04:12:55.086Z,87.61
2022-07-29T04:15:22.518Z,87.11
2022-07-29T04:18:05.215Z,88.34
2022-07-29T04:20:52.062Z,86.02
2022-07-29T04:23:24.731Z,87.15
2022-07-29T04:25:51.735Z,86.82
2022-07-29T04:29:09.162Z,85.52
2022-07-29T04:36:18.834Z,86.54
2022-07-29T04:39:22.998Z,87.62
2022-07-29T04:45:09.107Z,83.60
2022-07-29T04:48:12.586Z,85.00
2022-07-29T04:51:21.873Z,85.30
2022-07-29T04:53:48.900Z,83.95
2022-07-29T04:56:15.956Z,83.86
2022-07-29T04:58:59.226Z,83.56
2022-07-29T05:01:46.810Z,83.74
2022-07-29T05:09:06.997Z,83.60
2022-07-29T05:12:38.518Z,82.92
2022-07-29T05:15:07.044Z,82.94
2022-07-29T05:17:34.701Z,84.50
2022-07-29T05:20:03.044Z,82.73
2022-07-29T05:22:30.110Z,82.57
2022-07-29T05:25:15.467Z,81.03
2022-07-29T05:28:04.160Z,82.31
2022-07-29T05:30:31.696Z,80.81
2022-07-29T05:32:59.003Z,80.65
2022-07-29T05:35:31.691Z,81.85
2022-07-29T05:37:58.968Z,79.65
2022-07-29T05:40:26.246Z,78.96
2022-07-29T05:43:18.092Z,78.82
2022-07-29T05:46:15.226Z,78.18
2022-07-29T05:48:45.647Z,76.38
2022-07-29T05:51:13.179Z,76.24
2022-07-29T05:53:40.478Z,76.01
2022-07-29T05:56:08.262Z,76.97
2022-07-29T05:58:35.313Z,77.46
2022-07-29T06:01:10.795Z,76.72
2022-07-29T06:06:48.905Z,76.14
2022-07-29T06:09:26.806Z,76.86
2022-07-29T06:12:10.279Z,74.89
2022-07-29T06:14:39.295Z,74.94
2022-07-29T06:17:24.306Z,73.77
2022-07-29T06:20:00.366Z,74.59
2022-07-29T06:22:27.781Z,73.87
2022-07-29T06:25:22.970Z,74.60
2022-07-29T06:27:56.373Z,72.21
2022-07-29T06:30:55.790Z,72.68
2022-07-29T06:36:10.505Z,70.39
2022-07-29T06:39:24.143Z,70.26
2022-07-29T06:41:52.139Z,70.06
2022-07-29T06:44:35.293Z,70.11
2022-07-29T06:47:33.896Z,69.47
2022-07-29T06:50:01.110Z,68.53
2022-07-29T06:52:28.378Z,69.07
2022-07-29T06:54:56.480Z,68.19
2022-07-29T06:57:26.205Z,67.80
2022-07-29T07:00:00.340Z,68.18
2022-07-29T07:05:44.389Z,66.14
2022-07-29T07:08:13.044Z,66.32
2022-07-29T07:10:40.993Z,64.80
2022-07-29T07:13:09.832Z,63.93
2022-07-29T07:15:39.430Z,62.88
2022-07-29T07:18:08.418Z,63.13
2022-07-29T07:23:17.846Z,62.04
2022-07-29T07:26:13.184Z,61.38
2022-07-29T07:28:40.236Z,61.07
2022-07-29T07:31:07.286Z,60.66
2022-07-29T07:33:46.207Z,59.47
2022-07-29T07:36:13.235Z,58.19
2022-07-29T07:38:46.692Z,57.51
2022-07-29T07:41:17.352Z,54.24
2022-07-29T07:43:55.130Z,52.76
2022-07-29T07:46:55.884Z,53.06
2022-07-29T07:49:23.272Z,54.38
2022-07-29T07:53:01.665Z,53.13
2022-07-29T07:55:29.517Z,50.98
2022-07-29T07:58:07.350Z,49.17
2022-07-29T08:01:26.211Z,48.31
2022-07-29T08:03:53.756Z,47.84
2022-07-29T08:06:32.452Z,48.34
2022-07-29T08:09:26.554Z,47.12
2022-07-29T08:12:00.262Z,46.55
2022-07-29T08:14:34.512Z,46.78
2022-07-29T08:17:05.008Z,47.81
2022-07-29T08:19:34.894Z,46.66
2022-07-29T08:22:02.421Z,46.88
2022-07-29T08:24:46.462Z,46.57
2022-07-29T08:27:42.403Z,45.71
2022-07-29T08:30:11.548Z,45.00
2022-07-29T08:32:54.564Z,45.08
2022-07-29T08:35:24.250Z,44.07
2022-07-29T08:37:52.635Z,42.96
2022-07-29T08:40:33.453Z,43.81
2022-07-29T08:43:08.107Z,44.54
2022-07-29T08:45:52.191Z,41.04
2022-07-29T08:48:47.278Z,42.07
2022-07-29T08:51:49.612Z,38.98
2022-07-29T08:54:19.525Z,39.34
2022-07-29T08:56:51.373Z,37.43
2022-07-29T08:59:22.930Z,38.32
2022-07-29T09:01:53.766Z,36.62
2022-07-29T09:04:21.957Z,35.91
2022-07-29T09:06:54.103Z,34.99
2022-07-29T09:09:21.859Z,34.68
2022-07-29T09:11:49.381Z,34.89
2022-07-29T09:14:16.414Z,34.96
2022-07-29T09:16:54.031Z,35.99
2022-07-29T09:19:36.891Z,34.94
2022-07-29T09:22:07.698Z,34.86
2022-07-29T09:24:48.515Z,36.95
2022-07-29T09:27:18.394Z,34.16
2022-07-29T09:29:45.552Z,33.96
2022-07-29T09:32:13.029Z,33.72
2022-07-29T09:34:40.324Z,32.96
2022-07-29T09:37:07.742Z,32.73
2022-07-29T09:39:49.350Z,31.62
2022-07-29T09:42:30.839Z,30.50
2022-07-29T09:44:58.006Z,31.77
2022-07-29T09:47:49.686Z,33.55
2022-07-29T09:50:24.805Z,35.22
2022-07-29T09:52:54.344Z,33.22
2022-07-29T09:55:21.604Z,33.34
2022-07-29T09:57:49.118Z,32.22
2022-07-29T10:00:23.932Z,32.95
2022-07-29T10:02:51.654Z,32.31
2022-07-29T10:05:36.748Z,31.77
2022-07-29T10:08:04.629Z,32.16
2022-07-29T10:10:40.243Z,33.93
2022-07-29T10:13:16.505Z,34.14
2022-07-29T10:15:47.200Z,34.99
2022-07-29T10:18:18.337Z,31.57
2022-07-29T10:20:46.452Z,31.82
2022-07-29T10:23:13.624Z,31.80
2022-07-29T10:25:45.897Z,30.71
2022-07-29T10:28:16.464Z,31.36
2022-07-29T10:30:46.892Z,29.21
2022-07-29T10:34:00.129Z,29.38
2022-07-29T10:37:19.434Z,30.62
2022-07-29T10:40:42.193Z,30.04
2022-07-29T10:43:29.788Z,29.60
2022-07-29T10:46:01.652Z,29.98
2022-07-29T10:48:28.983Z,29.64
2022-07-29T10:51:04.935Z,29.67
2022-07-29T10:53:54.102Z,30.29
2022-07-29T10:56:34.580Z,29.09
2022-07-29T10:59:21.454Z,29.13
2022-07-29T11:01:54.398Z,29.66
2022-07-29T11:04:44.578Z,29.96
2022-07-29T11:07:13.178Z,30.39
2022-07-29T11:09:42.319Z,29.83
2022-07-29T11:12:39.256Z,29.41
2022-07-29T11:15:20.084Z,28.50
2022-07-29T11:18:15.307Z,28.81
2022-07-29T11:20:51.105Z,27.47
2022-07-29T11:23:36.812Z,27.19
2022-07-29T11:26:23.154Z,28.39
2022-07-29T11:29:15.364Z,29.40
2022-07-29T11:31:52.618Z,29.51
2022-07-29T11:34:30.717Z,30.67
2022-07-29T11:37:27.701Z,30.78
2022-07-29T11:40:02.203Z,30.12
2022-07-29T11:42:34.179Z,31.04
2022-07-29T11:45:43.524Z,30.27
2022-07-29T11:48:28.432Z,29.96
2022-07-29T11:50:54.433Z,28.53
2022-07-29T11:53:22.713Z,28.45
2022-07-29T11:55:59.150Z,29.01
2022-07-29T11:58:27.226Z,29.43
2022-07-29T12:00:55.348Z,29.43
2022-07-29T12:03:33.516Z,29.43
2022-07-29T12:06:14.305Z,30.07
2022-07-29T12:08:51.504Z,29.52
2022-07-29T12:11:22.481Z,30.33
2022-07-29T12:13:52.515Z,29.92
2022-07-29T12:16:25.819Z,31.00
2022-07-29T12:19:02.050Z,30.36
2022-07-29T12:21:56.651Z,30.37
2022-07-29T12:24:28.192Z,30.43
2022-07-29T12:27:00.498Z,30.40
2022-07-29T12:29:35.531Z,30.58
2022-07-29T12:32:14.289Z,29.99
2022-07-29T12:34:45.222Z,30.69
2022-07-29T12:37:21.395Z,29.75
2022-07-29T12:40:13.567Z,31.47
2022-07-29T12:42:41.844Z,30.64
2022-07-29T12:45:09.453Z,29.46
2022-07-29T12:47:53.528Z,29.97
2022-07-29T12:50:25.894Z,29.87
2022-07-29T12:53:12.037Z,29.97
2022-07-29T12:55:54.374Z,30.00
2022-07-29T12:58:51.110Z,31.08
2022-07-29T13:01:21.710Z,30.32
2022-07-29T13:04:05.140Z,30.73
2022-07-29T13:06:41.913Z,28.78
2022-07-29T13:09:24.667Z,29.17
2022-07-29T13:11:54.383Z,30.54
2022-07-29T13:14:49.706Z,30.41
2022-07-29T13:17:24.094Z,32.25
2022-07-29T13:23:29.761Z,33.39
2022-07-29T13:26:13.042Z,31.19
2022-07-29T13:28:47.494Z,31.69
2022-07-29T13:31:14.645Z,32.16
2022-07-29T13:33:41.754Z,30.65
2022-07-29T13:36:12.138Z,29.70
2022-07-29T13:38:39.643Z,29.20
2022-07-29T13:41:07.213Z,29.70
2022-07-29T13:43:34.182Z,28.94
2022-07-29T13:46:01.249Z,26.54
2022-07-29T13:48:28.457Z,29.49
2022-07-29T13:50:57.971Z,29.81
2022-07-29T13:53:28.839Z,29.95
2022-07-29T13:55:56.371Z,29.86
2022-07-29T13:58:23.458Z,29.54
2022-07-29T14:00:50.661Z,29.86
2022-07-29T14:03:17.843Z,29.50
2022-07-29T14:05:44.969Z,28.04
2022-07-29T14:08:12.043Z,27.64
2022-07-29T14:10:39.150Z,27.38
2022-07-29T14:13:06.150Z,27.03
2022-07-29T14:15:51.797Z,26.05
2022-07-29T14:18:19.151Z,27.06
2022-07-29T14:20:46.327Z,28.71
2022-07-29T14:23:13.511Z,29.13
2022-07-29T14:25:43.330Z,30.21
2022-07-29T14:28:15.182Z,29.25
2022-07-29T14:30:44.217Z,28.00
2022-07-29T14:33:32.216Z,27.45
2022-07-29T14:36:00.902Z,28.32
2022-07-29T14:38:28.522Z,27.91
2022-07-29T14:40:55.667Z,29.80
2022-07-29T14:43:31.863Z,29.57
2022-07-29T14:46:03.004Z,29.59
2022-07-29T14:48:34.290Z,28.08
2022-07-29T14:51:04.711Z,28.12
2022-07-29T14:53:33.042Z,27.40
2022-07-29T14:56:15.324Z,27.75
2022-07-29T14:58:59.083Z,28.02
2022-07-29T15:01:29.679Z,26.55
2022-07-29T15:04:00.034Z,25.96
2022-07-29T15:06:28.571Z,27.33
2022-07-29T15:08:55.793Z,27.12
2022-07-29T15:11:22.798Z,27.62
2022-07-29T15:13:49.835Z,26.51
2022-07-29T15:16:22.529Z,28.22
2022-07-29T15:18:55.266Z,28.75
2022-07-29T15:21:22.671Z,27.74
2022-07-29T15:23:49.910Z,29.07
2022-07-29T15:26:17.613Z,28.52
2022-07-29T15:28:46.167Z,27.98
2022-07-29T15:31:16.326Z,28.22
2022-07-29T15:33:43.387Z,28.02
2022-07-29T15:36:25.417Z,28.52
2022-07-29T15:39:01.793Z,29.40
2022-07-29T15:41:32.174Z,30.66
2022-07-29T15:44:02.144Z,30.03
2022-07-29T15:46:47.613Z,29.91
2022-07-29T15:49:14.821Z,29.51
2022-07-29T15:51:42.170Z,29.77
2022-07-29T15:54:09.258Z,28.97
2022-07-29T15:56:51.050Z,28.49
2022-07-29T15:59:22.596Z,28.61
2022-07-29T16:01:50.144Z,28.50
2022-07-29T16:04:17.833Z,28.92
2022-07-29T16:06:47.562Z,29.19
2022-07-29T16:09:16.634Z,29.50
2022-07-29T16:11:44.248Z,29.53
2022-07-29T16:14:15.543Z,30.26
2022-07-29T16:16:42.642Z,29.83
2022-07-29T16:19:13.186Z,29.49
2022-07-29T16:21:43.628Z,29.17
2022-07-29T16:24:16.397Z,28.38
2022-07-29T16:26:43.406Z,29.80
2022-07-29T16:29:10.457Z,28.83
2022-07-29T16:31:37.630Z,29.67
2022-07-29T16:34:04.666Z,28.89
2022-07-29T16:36:34.691Z,29.43
2022-07-29T16:39:02.118Z,28.53
2022-07-29T16:41:31.964Z,29.62
2022-07-29T16:44:38.549Z,29.78
2022-07-29T16:46:59.964Z,29.25
2022-07-29T16:49:47.149Z,29.96
2022-07-29T16:52:14.173Z,29.99
2022-07-29T16:54:44.056Z,30.06
2022-07-29T16:57:14.784Z,30.19
2022-07-29T16:59:51.426Z,30.03
2022-07-29T17:02:29.394Z,30.13
2022-07-29T17:04:57.093Z,30.49
2022-07-29T17:08:01.329Z,30.86
2022-07-29T17:10:52.048Z,30.23
2022-07-29T17:13:22.305Z,30.65
2022-07-29T17:15:49.496Z,30.40
2022-07-29T17:18:31.150Z,30.83
2022-07-29T17:20:58.143Z,31.48
2022-07-29T17:23:26.850Z,30.95
2022-07-29T17:25:53.942Z,31.02
2022-07-29T17:28:23.677Z,31.15
2022-07-29T17:30:56.901Z,31.41
2022-07-29T17:33:46.941Z,31.17
2022-07-29T17:36:33.653Z,31.12
2022-07-29T17:39:08.034Z,31.28
2022-07-29T17:42:00.609Z,31.84
2022-07-29T17:44:30.610Z,31.56
2022-07-29T17:46:57.980Z,32.14
2022-07-29T17:49:25.825Z,31.83
2022-07-29T17:51:56.448Z,32.37
2022-07-29T17:55:10.416Z,32.07
2022-07-29T17:57:37.718Z,31.85
2022-07-29T18:01:12.390Z,32.19
2022-07-29T18:03:55.235Z,32.31
2022-07-29T18:06:36.071Z,33.11
2022-07-29T18:09:05.744Z,32.45
2022-07-29T18:12:10.132Z,32.78
2022-07-29T18:17:57.658Z,33.47
2022-07-29T18:20:28.558Z,33.10
2022-07-29T18:22:55.859Z,33.79
2022-07-29T18:26:15.104Z,33.50
2022-07-29T18:28:42.203Z,33.76
2022-07-29T18:31:15.919Z,34.32
2022-07-29T18:33:52.113Z,34.14
2022-07-29T18:36:19.505Z,34.25
2022-07-29T18:39:49.575Z,34.37
2022-07-29T18:42:50.351Z,34.42
2022-07-29T18:45:22.183Z,35.33
2022-07-29T18:47:59.737Z,35.83
2022-07-29T18:51:09.408Z,35.30
2022-07-29T18:54:33.012Z,35.69
2022-07-29T18:57:55.247Z,36.28
2022-07-29T19:00:06.575Z,36.20
2022-07-29T19:07:05.798Z,36.40
2022-07-29T19:10:11.401Z,36.39
2022-07-29T19:13:20.769Z,36.95
2022-07-29T19:19:54.260Z,37.88
2022-07-29T19:25:55.253Z,38.19
2022-07-29T19:29:17.873Z,37.91
2022-07-29T19:32:24.667Z,38.62
2022-07-29T19:35:24.278Z,38.21
2022-07-29T19:38:39.420Z,38.48
2022-07-29T19:42:44.656Z,38.34
2022-07-29T19:45:33.784Z,39.28
2022-07-29T19:55:31.319Z,39.27
2022-07-29T19:58:41.263Z,39.36
2022-07-29T20:01:46.338Z,39.48
2022-07-29T20:04:17.084Z,39.57
2022-07-29T20:06:44.505Z,39.94
2022-07-29T20:09:17.082Z,39.90
2022-07-29T20:11:51.086Z,40.07
2022-07-29T20:14:52.751Z,40.26
2022-07-29T20:17:27.149Z,40.38
2022-07-29T20:20:13.262Z,40.77
2022-07-29T20:23:05.435Z,40.91
2022-07-29T20:29:09.147Z,40.94
2022-07-29T20:35:31.687Z,41.11
2022-07-29T20:43:10.149Z,41.22
2022-07-29T20:46:25.045Z,42.13
2022-07-29T20:49:22.618Z,41.56
2022-07-29T20:52:49.832Z,41.58
2022-07-29T20:55:29.049Z,41.75
2022-07-29T20:59:19.523Z,42.11
2022-07-29T21:01:47.307Z,42.57
2022-07-29T21:09:46.460Z,42.15
2022-07-29T21:20:26.607Z,42.78
2022-07-29T21:26:26.855Z,42.86
2022-07-29T21:33:20.959Z,43.17
2022-07-29T21:48:02.679Z,44.57
2022-07-29T21:50:29.729Z,44.44
2022-07-29T21:55:56.283Z,44.22
2022-07-29T22:15:28.214Z,45.87
2022-07-29T22:57:27.037Z,45.03
2022-07-29T23:01:37.746Z,44.48
2022-07-29T23:09:14.964Z,45.28
